createdAt,value
2022-11-05T00:00:07.934Z,3.86
2022-11-05T00:02:52.812Z,3.84
2022-11-05T00:05:37.885Z,3.75
2022-11-05T00:08:23.497Z,3.59
2022-11-05T00:10:50.064Z,3.52
2022-11-05T00:13:36.082Z,3.70
2022-11-05T00:16:21.149Z,3.98
2022-11-05T00:19:06.473Z,3.96
2022-11-05T00:21:52.810Z,3.80
2022-11-05T00:24:37.563Z,3.73
2022-11-05T00:27:04.381Z,3.68
2022-11-05T00:29:30.957Z,3.66
2022-11-05T00:31:57.566Z,3.89
2022-11-05T00:34:24.217Z,3.99
2022-11-05T00:36:50.608Z,3.94
2022-11-05T00:39:17.230Z,4.10
2022-11-05T00:41:43.666Z,4.18
2022-11-05T00:44:28.771Z,4.21
2022-11-05T00:47:15.151Z,4.26
2022-11-05T00:49:41.738Z,4.27
2022-11-05T00:52:26.770Z,4.32
2022-11-05T00:54:53.177Z,4.36
2022-11-05T00:57:19.577Z,4.29
2022-11-05T00:59:45.959Z,4.36
2022-11-05T01:02:12.482Z,4.48
2022-11-05T01:04:38.954Z,4.64
2022-11-05T01:07:05.360Z,4.72
2022-11-05T01:09:31.780Z,4.88
2022-11-05T01:11:58.173Z,4.85
2022-11-05T01:14:24.587Z,4.85
2022-11-05T01:16:51.039Z,4.66
2022-11-05T01:19:17.459Z,4.51
2022-11-05T01:21:43.872Z,4.39
2022-11-05T01:24:11.089Z,4.33
2022-11-05T01:26:37.479Z,4.24
2022-11-05T01:29:03.896Z,4.21
2022-11-05T01:31:30.449Z,4.16
2022-11-05T01:33:57.015Z,4.15
2022-11-05T01:36:23.473Z,4.10
2022-11-05T01:38:49.930Z,4.14
2022-11-05T01:41:16.321Z,4.20
2022-11-05T01:43:48.680Z,4.17
2022-11-05T01:46:18.051Z,4.07
2022-11-05T01:48:44.598Z,4.18
2022-11-05T01:51:18.774Z,4.11
2022-11-05T01:53:57.140Z,3.96
2022-11-05T01:56:28.749Z,3.71
2022-11-05T01:59:09.486Z,3.52
2022-11-05T02:01:36.033Z,3.40
2022-11-05T02:04:08.602Z,3.43
2022-11-05T02:06:39.429Z,3.57
2022-11-05T02:09:16.539Z,3.75
2022-11-05T02:11:43.010Z,3.85
2022-11-05T02:14:09.470Z,3.99
2022-11-05T02:16:46.542Z,3.91
2022-11-05T02:19:55.085Z,3.84
2022-11-05T02:22:40.221Z,3.80
2022-11-05T02:25:54.342Z,3.81
2022-11-05T02:29:11.854Z,3.83
2022-11-05T02:31:43.971Z,3.74
2022-11-05T02:34:19.908Z,3.60
2022-11-05T02:37:09.672Z,3.56
2022-11-05T02:39:48.523Z,3.55
2022-11-05T02:42:36.464Z,3.56
2022-11-05T02:45:17.430Z,3.47
2022-11-05T02:47:59.235Z,3.36
2022-11-05T02:50:53.921Z,3.26
2022-11-05T02:53:48.529Z,3.34
2022-11-05T02:56:24.285Z,3.38
2022-11-05T02:58:50.712Z,3.26
2022-11-05T03:01:17.457Z,3.37
2022-11-05T03:03:48.423Z,3.41
2022-11-05T03:06:58.891Z,3.37
2022-11-05T03:09:25.238Z,3.45
2022-11-05T03:12:09.976Z,3.35
2022-11-05T03:14:45.434Z,3.32
2022-11-05T03:17:37.940Z,3.25
2022-11-05T03:20:10.406Z,3.18
2022-11-05T03:22:51.592Z,3.10
2022-11-05T03:25:22.672Z,2.98
2022-11-05T03:27:55.949Z,2.85
2022-11-05T03:30:22.453Z,2.91
2022-11-05T03:32:59.262Z,2.96
2022-11-05T03:35:31.442Z,3.10
2022-11-05T03:38:03.535Z,3.16
2022-11-05T03:40:35.906Z,3.15
2022-11-05T03:43:06.412Z,3.16
2022-11-05T03:45:38.701Z,3.24
2022-11-05T03:48:07.975Z,3.19
2022-11-05T03:50:42.133Z,3.02
2022-11-05T03:53:18.518Z,3.14
2022-11-05T03:55:59.345Z,3.16
2022-11-05T03:58:27.007Z,3.12
2022-11-05T04:00:53.661Z,3.05
2022-11-05T04:03:20.078Z,3.12
2022-11-05T04:06:09.844Z,3.14
2022-11-05T04:08:54.844Z,3.17
2022-11-05T04:11:39.550Z,3.25
2022-11-05T04:14:05.942Z,3.28
2022-11-05T04:16:50.878Z,3.54
2022-11-05T04:19:37.241Z,3.38
2022-11-05T04:22:22.338Z,3.47
2022-11-05T04:24:48.760Z,3.42
2022-11-05T04:27:15.199Z,3.32
2022-11-05T04:30:00.348Z,3.24
2022-11-05T04:32:26.795Z,3.33
2022-11-05T04:34:53.186Z,3.48
2022-11-05T04:37:19.617Z,3.61
2022-11-05T04:39:46.006Z,3.62
2022-11-05T04:42:12.416Z,3.57
2022-11-05T04:44:38.838Z,3.15
2022-11-05T04:47:05.247Z,3.10
2022-11-05T04:49:31.629Z,3.18
2022-11-05T04:51:58.025Z,3.32
2022-11-05T04:54:24.428Z,3.41
2022-11-05T04:56:50.821Z,3.64
2022-11-05T04:59:17.374Z,3.70
2022-11-05T05:01:43.871Z,3.76
2022-11-05T05:04:10.298Z,3.65
2022-11-05T05:06:38.305Z,3.73
2022-11-05T05:09:04.681Z,3.72
2022-11-05T05:11:31.071Z,3.85
2022-11-05T05:13:57.713Z,4.06
2022-11-05T05:16:26.142Z,4.08
2022-11-05T05:18:53.542Z,4.08
2022-11-05T05:21:41.326Z,4.05
2022-11-05T05:24:18.561Z,4.14
2022-11-05T05:26:47.515Z,4.21
2022-11-05T05:29:14.673Z,4.25
2022-11-05T05:31:41.686Z,4.19
2022-11-05T05:34:11.338Z,4.37
2022-11-05T05:36:37.774Z,4.36
2022-11-05T05:39:10.687Z,4.36
2022-11-05T05:41:37.106Z,4.22
2022-11-05T05:44:05.467Z,4.20
2022-11-05T05:46:31.941Z,4.22
2022-11-05T05:48:58.359Z,4.32
2022-11-05T05:51:24.740Z,4.50
2022-11-05T05:53:51.170Z,4.58
2022-11-05T05:56:20.471Z,4.53
2022-11-05T05:58:47.844Z,4.50
2022-11-05T06:01:19.373Z,4.58
2022-11-05T06:03:47.661Z,4.63
2022-11-05T06:06:15.113Z,4.52
2022-11-05T06:08:42.324Z,4.63
2022-11-05T06:11:09.451Z,4.59
2022-11-05T06:13:36.969Z,4.80
2022-11-05T06:16:06.440Z,4.65
2022-11-05T06:18:33.802Z,4.71
2022-11-05T06:21:08.075Z,4.63
2022-11-05T06:23:36.258Z,4.62
2022-11-05T06:26:08.412Z,4.45
2022-11-05T06:28:35.432Z,4.48
2022-11-05T06:31:01.950Z,4.70
2022-11-05T06:33:28.540Z,4.81
2022-11-05T06:35:58.566Z,4.87
2022-11-05T06:38:25.258Z,4.86
2022-11-05T06:40:51.712Z,4.71
2022-11-05T06:43:18.121Z,4.56
2022-11-05T06:45:44.529Z,4.70
2022-11-05T06:48:10.924Z,4.82
2022-11-05T06:50:37.308Z,4.79
2022-11-05T06:53:04.679Z,4.84
2022-11-05T06:55:31.854Z,5.10
2022-11-05T06:57:58.819Z,4.99
2022-11-05T07:00:25.644Z,4.98
2022-11-05T07:02:52.073Z,4.97
2022-11-05T07:05:18.510Z,5.03
2022-11-05T07:07:45.634Z,4.99
2022-11-05T07:10:17.511Z,4.94
2022-11-05T07:12:44.144Z,5.04
2022-11-05T07:15:12.225Z,5.01
2022-11-05T07:17:39.995Z,5.05
2022-11-05T07:20:08.287Z,5.08
2022-11-05T07:22:35.226Z,5.09
2022-11-05T07:25:02.122Z,5.21
2022-11-05T07:27:29.085Z,5.27
2022-11-05T07:29:55.535Z,5.46
2022-11-05T07:32:21.922Z,5.51
2022-11-05T07:34:48.539Z,5.48
2022-11-05T07:37:16.637Z,5.68
2022-11-05T07:39:43.116Z,5.74
2022-11-05T07:42:13.407Z,5.82
2022-11-05T07:44:39.933Z,5.72
2022-11-05T07:47:06.414Z,5.69
2022-11-05T07:49:32.816Z,5.68
2022-11-05T07:51:59.306Z,5.72
2022-11-05T07:54:26.701Z,5.86
2022-11-05T07:56:53.099Z,5.94
2022-11-05T07:59:19.649Z,5.96
2022-11-05T08:01:46.151Z,6.07
2022-11-05T08:04:12.794Z,6.31
2022-11-05T08:06:39.210Z,6.48
2022-11-05T08:09:05.635Z,6.72
2022-11-05T08:11:32.198Z,6.53
2022-11-05T08:13:58.772Z,6.86
2022-11-05T08:16:25.181Z,7.03
2022-11-05T08:18:51.658Z,7.01
2022-11-05T08:21:18.085Z,7.08
2022-11-05T08:23:45.191Z,7.14
2022-11-05T08:26:11.684Z,7.15
2022-11-05T08:28:38.121Z,7.29
2022-11-05T08:31:04.628Z,7.30
2022-11-05T08:33:31.450Z,7.32
2022-11-05T08:36:02.209Z,7.40
2022-11-05T08:38:28.840Z,7.48
2022-11-05T08:40:57.538Z,7.49
2022-11-05T08:43:24.128Z,7.60
2022-11-05T08:45:50.602Z,7.66
2022-11-05T08:48:18.476Z,7.68
2022-11-05T08:50:46.497Z,7.67
2022-11-05T08:53:14.093Z,7.68
2022-11-05T08:55:40.928Z,7.71
2022-11-05T08:58:14.945Z,7.97
2022-11-05T09:00:42.206Z,7.95
2022-11-05T09:03:09.663Z,7.88
2022-11-05T09:05:39.140Z,8.10
2022-11-05T09:08:10.394Z,8.09
2022-11-05T09:10:37.929Z,8.09
2022-11-05T09:13:04.861Z,8.20
2022-11-05T09:15:32.243Z,8.25
2022-11-05T09:17:59.208Z,8.31
2022-11-05T09:20:25.774Z,8.33
2022-11-05T09:22:52.407Z,8.37
2022-11-05T09:25:18.972Z,8.41
2022-11-05T09:27:45.498Z,8.64
2022-11-05T09:30:13.375Z,8.77
2022-11-05T09:32:40.263Z,8.92
2022-11-05T09:35:07.158Z,9.31
2022-11-05T09:37:33.630Z,9.71
2022-11-05T09:40:00.097Z,9.75
2022-11-05T09:42:34.628Z,9.84
2022-11-05T09:45:05.264Z,10.01
2022-11-05T09:47:43.354Z,10.00
2022-11-05T09:50:18.723Z,10.03
2022-11-05T09:52:45.601Z,9.83
2022-11-05T09:55:22.059Z,9.97
2022-11-05T09:58:01.237Z,9.84
2022-11-05T10:00:30.280Z,9.62
2022-11-05T10:03:14.305Z,9.42
2022-11-05T10:05:41.464Z,9.31
2022-11-05T10:08:17.610Z,9.04
2022-11-05T10:10:51.530Z,9.17
2022-11-05T10:13:38.363Z,9.08
2022-11-05T10:16:28.550Z,9.11
2022-11-05T10:19:04.517Z,9.34
2022-11-05T10:21:59.644Z,9.28
2022-11-05T10:24:20.261Z,9.28
2022-11-05T10:26:49.527Z,9.49
2022-11-05T10:29:32.383Z,10.01
2022-11-05T10:32:01.342Z,10.81
2022-11-05T10:34:33.286Z,11.44
2022-11-05T10:36:59.963Z,12.55
2022-11-05T10:39:27.861Z,12.89
2022-11-05T10:42:10.770Z,12.93
2022-11-05T10:45:01.362Z,13.75
2022-11-05T10:47:48.353Z,13.47
2022-11-05T10:50:27.367Z,14.37
2022-11-05T10:53:04.977Z,14.33
2022-11-05T10:55:37.737Z,14.65
2022-11-05T10:58:18.043Z,13.15
2022-11-05T11:00:51.525Z,13.31
2022-11-05T11:03:51.251Z,14.12
2022-11-05T11:06:26.074Z,13.63
2022-11-05T11:08:55.708Z,14.79
2022-11-05T11:11:28.962Z,14.86
2022-11-05T11:14:01.580Z,16.15
2022-11-05T11:16:33.405Z,15.94
2022-11-05T11:19:01.675Z,16.28
2022-11-05T11:21:29.000Z,15.38
2022-11-05T11:23:57.802Z,16.21
2022-11-05T11:26:28.041Z,16.36
2022-11-05T11:28:57.249Z,15.43
2022-11-05T11:31:29.220Z,14.23
2022-11-05T11:34:01.014Z,15.42
2022-11-05T11:36:43.024Z,15.56
2022-11-05T11:39:30.416Z,15.93
2022-11-05T11:42:00.458Z,15.42
2022-11-05T11:44:32.651Z,16.03
2022-11-05T11:47:09.123Z,16.40
2022-11-05T11:49:41.590Z,15.69
2022-11-05T11:52:19.363Z,14.91
2022-11-05T11:54:45.884Z,14.72
2022-11-05T11:57:42.170Z,16.60
2022-11-05T12:00:09.954Z,17.35
2022-11-05T12:02:48.420Z,17.67
2022-11-05T12:05:30.660Z,18.23
2022-11-05T12:08:06.585Z,16.00
2022-11-05T12:10:56.396Z,15.15
2022-11-05T12:13:43.813Z,13.68
2022-11-05T12:16:15.708Z,12.66
2022-11-05T12:18:54.479Z,12.70
2022-11-05T12:21:52.488Z,12.54
2022-11-05T12:24:32.333Z,13.81
2022-11-05T12:27:36.184Z,13.78
2022-11-05T12:30:09.348Z,14.71
2022-11-05T12:33:07.085Z,14.60
2022-11-05T12:36:03.965Z,16.29
2022-11-05T12:38:56.446Z,15.61
2022-11-05T12:41:33.517Z,15.30
2022-11-05T12:44:37.918Z,15.76
2022-11-05T12:47:13.382Z,17.14
2022-11-05T12:50:12.045Z,16.65
2022-11-05T12:53:01.222Z,17.41
2022-11-05T12:55:35.983Z,14.85
2022-11-05T12:58:12.936Z,14.07
2022-11-05T13:00:45.252Z,13.67
2022-11-05T13:03:47.150Z,14.09
2022-11-05T13:06:17.244Z,15.82
2022-11-05T13:09:02.230Z,15.84
2022-11-05T13:11:31.557Z,16.86
2022-11-05T13:14:15.047Z,15.95
2022-11-05T13:16:49.604Z,16.38
2022-11-05T13:19:18.886Z,16.53
2022-11-05T13:21:49.965Z,18.13
2022-11-05T13:24:31.010Z,16.80
2022-11-05T13:27:37.761Z,15.88
2022-11-05T13:30:06.709Z,15.78
2022-11-05T13:32:37.202Z,15.93
2022-11-05T13:35:07.150Z,15.68
2022-11-05T13:38:00.325Z,15.03
2022-11-05T13:40:45.173Z,13.20
2022-11-05T13:43:56.027Z,12.24
2022-11-05T13:46:40.477Z,12.36
2022-11-05T13:49:28.690Z,11.79
2022-11-05T13:52:03.825Z,11.51
2022-11-05T13:54:45.521Z,11.65
2022-11-05T13:57:41.351Z,11.88
2022-11-05T14:00:22.809Z,14.47
2022-11-05T14:02:57.764Z,15.95
2022-11-05T14:05:35.367Z,15.81
2022-11-05T14:08:10.071Z,14.79
2022-11-05T14:11:07.655Z,12.97
2022-11-05T14:13:42.321Z,13.12
2022-11-05T14:16:16.356Z,13.81
2022-11-05T14:18:45.258Z,13.91
2022-11-05T14:21:27.088Z,12.39
2022-11-05T14:23:56.686Z,11.70
2022-11-05T14:26:32.129Z,11.37
2022-11-05T14:28:58.599Z,11.53
2022-11-05T14:32:08.271Z,11.83
2022-11-05T14:34:54.025Z,13.55
2022-11-05T14:37:30.048Z,13.73
2022-11-05T14:40:01.321Z,14.43
2022-11-05T14:42:29.464Z,14.51
2022-11-05T14:45:05.894Z,14.28
2022-11-05T14:47:37.174Z,13.87
2022-11-05T14:50:29.629Z,12.53
2022-11-05T14:52:58.399Z,12.17
2022-11-05T14:55:33.813Z,11.29
2022-11-05T14:58:03.378Z,10.78
2022-11-05T15:00:29.748Z,10.75
2022-11-05T15:03:01.657Z,10.53
2022-11-05T15:05:31.062Z,10.34
2022-11-05T15:07:58.502Z,10.45
2022-11-05T15:10:35.265Z,10.23
2022-11-05T15:13:06.269Z,10.14
2022-11-05T15:15:43.455Z,10.10
2022-11-05T15:18:30.419Z,9.91
2022-11-05T15:21:00.551Z,9.68
2022-11-05T15:23:35.548Z,9.66
2022-11-05T15:26:11.754Z,9.48
2022-11-05T15:28:45.745Z,9.47
2022-11-05T15:31:12.261Z,9.45
2022-11-05T15:33:43.113Z,9.33
2022-11-05T15:36:31.922Z,9.28
2022-11-05T15:41:46.797Z,9.14
2022-11-05T15:44:31.172Z,8.96
2022-11-05T15:47:20.274Z,9.04
2022-11-05T15:49:54.192Z,9.10
2022-11-05T15:52:23.197Z,9.07
2022-11-05T15:55:08.573Z,9.08
2022-11-05T15:57:39.394Z,9.19
2022-11-05T16:00:15.606Z,9.20
2022-11-05T16:02:42.455Z,9.06
2022-11-05T16:05:14.047Z,8.92
2022-11-05T16:07:45.369Z,9.00
2022-11-05T16:10:33.475Z,9.03
2022-11-05T16:13:18.711Z,9.07
2022-11-05T16:15:55.311Z,8.92
2022-11-05T16:18:24.344Z,8.99
2022-11-05T16:21:02.477Z,8.95
2022-11-05T16:23:42.923Z,9.00
2022-11-05T16:27:02.160Z,8.92
2022-11-05T16:29:28.652Z,8.84
2022-11-05T16:31:57.152Z,8.80
2022-11-05T16:34:40.386Z,8.86
2022-11-05T16:37:17.042Z,8.90
2022-11-05T16:39:43.506Z,8.88
2022-11-05T16:42:22.144Z,8.91
2022-11-05T16:44:57.638Z,8.85
2022-11-05T16:47:26.216Z,8.84
2022-11-05T16:49:52.978Z,8.94
2022-11-05T16:52:19.469Z,8.92
2022-11-05T16:54:45.898Z,8.99
2022-11-05T16:57:26.988Z,9.04
2022-11-05T16:59:55.044Z,8.98
2022-11-05T17:02:21.725Z,8.88
2022-11-05T17:04:48.310Z,8.85
2022-11-05T17:07:14.786Z,8.83
2022-11-05T17:09:41.713Z,8.82
2022-11-05T17:12:10.943Z,8.90
2022-11-05T17:14:37.921Z,9.05
2022-11-05T17:17:04.985Z,8.96
2022-11-05T17:19:31.860Z,8.95
2022-11-05T17:21:58.354Z,8.94
2022-11-05T17:24:24.792Z,8.98
2022-11-05T17:26:51.297Z,8.85
2022-11-05T17:29:17.692Z,8.93
2022-11-05T17:31:44.091Z,8.93
2022-11-05T17:34:10.727Z,8.88
2022-11-05T17:36:37.143Z,8.94
2022-11-05T17:39:04.143Z,8.91
2022-11-05T17:41:30.647Z,8.86
2022-11-05T17:43:57.596Z,8.93
2022-11-05T17:46:26.239Z,8.93
2022-11-05T17:48:52.809Z,8.95
2022-11-05T17:51:19.832Z,8.83
2022-11-05T17:53:48.503Z,8.95
2022-11-05T17:56:30.504Z,8.97
2022-11-05T17:59:00.587Z,8.96
2022-11-05T18:01:30.319Z,8.94
2022-11-05T18:03:57.518Z,8.98
2022-11-05T18:06:24.018Z,8.84
2022-11-05T18:08:50.564Z,8.86
2022-11-05T18:11:17.586Z,8.80
2022-11-05T18:13:44.111Z,8.81
2022-11-05T18:16:10.684Z,8.77
2022-11-05T18:18:37.411Z,8.75
2022-11-05T18:21:04.264Z,8.72
2022-11-05T18:23:30.749Z,8.74
2022-11-05T18:25:57.339Z,8.79
2022-11-05T18:28:23.850Z,8.81
2022-11-05T18:30:51.304Z,8.73
2022-11-05T18:33:17.915Z,8.81
2022-11-05T18:35:44.767Z,8.84
2022-11-05T18:38:11.694Z,8.80
2022-11-05T18:40:38.426Z,8.73
2022-11-05T18:43:04.850Z,8.86
2022-11-05T18:45:33.377Z,8.79
2022-11-05T18:48:01.321Z,8.75
2022-11-05T18:50:28.525Z,8.73
2022-11-05T18:52:54.956Z,8.77
2022-11-05T18:55:23.301Z,8.65
2022-11-05T18:57:49.717Z,8.64
2022-11-05T19:00:16.993Z,8.62
2022-11-05T19:02:43.791Z,8.62
2022-11-05T19:07:56.885Z,8.77
2022-11-05T19:10:23.482Z,8.77
2022-11-05T19:12:50.461Z,8.68
2022-11-05T19:15:17.289Z,8.71
2022-11-05T19:17:43.798Z,8.71
2022-11-05T19:20:10.669Z,8.60
2022-11-05T19:22:37.505Z,8.68
2022-11-05T19:25:04.866Z,8.73
2022-11-05T19:27:31.402Z,8.62
2022-11-05T19:29:57.993Z,8.65
2022-11-05T19:32:24.530Z,8.60
2022-11-05T19:34:50.944Z,8.68
2022-11-05T19:37:17.505Z,8.59
2022-11-05T19:39:44.017Z,8.53
2022-11-05T19:42:10.492Z,8.51
2022-11-05T19:44:37.121Z,8.37
2022-11-05T19:47:03.773Z,8.49
2022-11-05T19:49:30.236Z,8.56
2022-11-05T19:51:56.843Z,8.54
2022-11-05T19:54:23.448Z,8.55
2022-11-05T19:56:51.741Z,8.48
2022-11-05T19:59:18.299Z,8.41
2022-11-05T20:01:44.987Z,8.44
2022-11-05T20:04:12.014Z,8.49
2022-11-05T20:06:40.119Z,8.55
2022-11-05T20:09:27.457Z,8.53
2022-11-05T20:11:56.518Z,8.57
2022-11-05T20:14:24.296Z,8.53
2022-11-05T20:16:51.033Z,8.45
2022-11-05T20:19:20.118Z,8.48
2022-11-05T20:21:47.176Z,8.50
2022-11-05T20:24:22.280Z,8.41
2022-11-05T20:26:50.153Z,8.42
2022-11-05T20:29:16.708Z,8.35
2022-11-05T20:31:43.218Z,8.53
2022-11-05T20:34:10.751Z,8.39
2022-11-05T20:36:38.438Z,8.40
2022-11-05T20:39:05.706Z,8.47
2022-11-05T20:41:33.238Z,8.49
2022-11-05T20:43:59.782Z,8.41
2022-11-05T20:46:26.231Z,8.42
2022-11-05T20:48:53.895Z,8.40
2022-11-05T20:51:22.550Z,8.37
2022-11-05T20:53:49.318Z,8.44
2022-11-05T20:56:20.123Z,8.44
2022-11-05T20:58:47.398Z,8.51
2022-11-05T21:01:16.444Z,8.38
2022-11-05T21:03:43.998Z,8.42
2022-11-05T21:06:11.554Z,8.46
2022-11-05T21:08:38.080Z,8.43
2022-11-05T21:11:05.274Z,8.41
2022-11-05T21:13:31.735Z,8.49
2022-11-05T21:16:00.069Z,8.40
2022-11-05T21:18:28.124Z,8.36
2022-11-05T21:20:55.267Z,8.33
2022-11-05T21:23:22.062Z,8.39
2022-11-05T21:25:51.194Z,8.41
2022-11-05T21:28:17.608Z,8.30
2022-11-05T21:30:45.895Z,8.28
2022-11-05T21:33:13.086Z,8.26
2022-11-05T21:35:41.094Z,8.30
2022-11-05T21:38:07.515Z,8.34
2022-11-05T21:40:33.937Z,8.34
2022-11-05T21:43:00.317Z,8.42
2022-11-05T21:45:27.132Z,8.49
2022-11-05T21:47:53.610Z,8.40
2022-11-05T21:50:22.009Z,8.43
2022-11-05T21:53:07.360Z,8.56
2022-11-05T21:55:52.362Z,8.36
2022-11-05T21:58:37.764Z,8.31
2022-11-05T22:01:04.284Z,8.33
2022-11-05T22:03:30.675Z,8.44
2022-11-05T22:05:57.495Z,8.40
2022-11-05T22:08:24.028Z,8.38
2022-11-05T22:10:50.449Z,8.39
2022-11-05T22:13:16.900Z,8.29
2022-11-05T22:15:43.287Z,8.18
2022-11-05T22:18:09.983Z,8.41
2022-11-05T22:20:38.679Z,8.39
2022-11-05T22:23:10.039Z,8.55
2022-11-05T22:25:37.825Z,8.30
2022-11-05T22:28:04.553Z,8.45
2022-11-05T22:30:34.545Z,8.45
2022-11-05T22:33:01.420Z,8.35
2022-11-05T22:35:28.358Z,8.50
2022-11-05T22:37:54.785Z,8.44
2022-11-05T22:40:23.813Z,8.31
2022-11-05T22:42:50.735Z,8.38
2022-11-05T22:45:17.233Z,8.22
2022-11-05T22:47:43.772Z,8.19
2022-11-05T22:50:10.440Z,8.20
2022-11-05T22:52:36.906Z,8.48
2022-11-05T22:55:06.074Z,8.36
2022-11-05T22:57:32.749Z,8.19
2022-11-05T22:59:59.251Z,8.14
2022-11-05T23:02:25.805Z,8.12
2022-11-05T23:04:52.406Z,8.25
2022-11-05T23:07:37.229Z,8.33
2022-11-05T23:10:22.181Z,8.24
2022-11-05T23:12:48.913Z,8.33
2022-11-05T23:15:35.293Z,8.28
2022-11-05T23:18:20.453Z,8.31
2022-11-05T23:21:05.664Z,8.33
2022-11-05T23:23:50.442Z,8.23
2022-11-05T23:26:35.434Z,8.32
2022-11-05T23:29:01.905Z,8.28
2022-11-05T23:31:46.865Z,8.44
2022-11-05T23:34:13.305Z,8.27
2022-11-05T23:36:58.290Z,8.59
2022-11-05T23:39:24.681Z,8.37
2022-11-05T23:42:09.692Z,8.42
2022-11-05T23:44:54.637Z,8.28
2022-11-05T23:47:39.436Z,8.23
2022-11-05T23:50:06.170Z,8.14
2022-11-05T23:52:32.595Z,8.20
2022-11-05T23:54:59.081Z,8.25
2022-11-05T23:57:25.525Z,8.19
2022-11-05T23:59:51.911Z,8.17
